createdAt,value
2023-03-06T00:01:28.455Z,4.13
2023-03-06T00:06:33.936Z,3.80
2023-03-06T00:11:37.341Z,4.03
2023-03-06T00:16:40.528Z,4.20
2023-03-06T00:21:44.937Z,4.00
2023-03-06T00:26:48.020Z,4.37
2023-03-06T00:31:51.391Z,4.27
2023-03-06T00:36:56.056Z,4.27
2023-03-06T00:41:59.193Z,4.07
2023-03-06T00:47:02.572Z,4.97
2023-03-06T00:52:07.582Z,4.70
2023-03-06T00:57:11.223Z,5.00
2023-03-06T01:02:14.729Z,5.00
2023-03-06T01:07:19.200Z,5.27
2023-03-06T01:12:23.607Z,4.97
2023-03-06T01:17:26.929Z,5.50
2023-03-06T01:22:31.446Z,5.93
2023-03-06T01:27:34.732Z,5.47
2023-03-06T01:32:38.101Z,5.07
2023-03-06T01:37:43.020Z,5.00
2023-03-06T01:42:46.932Z,5.80
2023-03-06T01:47:50.285Z,5.80
2023-03-06T01:52:58.885Z,5.67
2023-03-06T01:58:07.429Z,5.37
2023-03-06T02:03:15.235Z,5.10
2023-03-06T02:08:21.993Z,5.00
2023-03-06T02:13:25.318Z,5.30
2023-03-06T02:18:29.416Z,5.37
2023-03-06T02:23:43.439Z,5.60
2023-03-06T02:28:48.391Z,5.20
2023-03-06T02:34:06.330Z,5.27
2023-03-06T02:39:11.233Z,5.40
2023-03-06T02:44:15.841Z,5.07
2023-03-06T02:49:18.986Z,5.17
2023-03-06T02:54:22.415Z,4.87
2023-03-06T02:59:27.070Z,4.73
2023-03-06T03:04:30.576Z,5.10
2023-03-06T03:09:37.057Z,5.63
2023-03-06T03:14:42.355Z,5.60
2023-03-06T03:19:45.881Z,5.50
2023-03-06T03:24:49.507Z,5.57
2023-03-06T03:29:54.163Z,5.80
2023-03-06T03:34:57.878Z,6.20
2023-03-06T03:40:01.562Z,6.27
2023-03-06T03:45:07.190Z,6.43
2023-03-06T03:50:12.203Z,6.30
2023-03-06T03:55:15.394Z,6.20
2023-03-06T04:00:20.784Z,7.33
2023-03-06T04:05:24.324Z,7.20
2023-03-06T04:10:27.502Z,7.73
2023-03-06T04:15:32.159Z,7.37
2023-03-06T04:20:35.494Z,7.20
2023-03-06T04:25:39.186Z,6.80
2023-03-06T04:30:43.789Z,7.20
2023-03-06T04:35:47.077Z,7.60
2023-03-06T04:40:50.758Z,7.27
2023-03-06T04:45:55.500Z,6.90
2023-03-06T04:50:58.992Z,7.57
2023-03-06T04:56:02.267Z,7.63
2023-03-06T05:01:07.420Z,7.47
2023-03-06T05:06:10.691Z,6.73
2023-03-06T05:11:13.933Z,7.20
2023-03-06T05:16:18.778Z,7.80
2023-03-06T05:21:21.986Z,7.40
2023-03-06T05:26:25.096Z,7.63
2023-03-06T05:31:29.904Z,7.80
2023-03-06T05:36:33.346Z,8.20
2023-03-06T05:41:36.840Z,7.57
2023-03-06T05:46:41.635Z,7.20
2023-03-06T05:51:44.943Z,7.60
2023-03-06T05:56:48.196Z,7.20
2023-03-06T06:01:52.799Z,6.90
2023-03-06T06:06:58.597Z,7.03
2023-03-06T06:12:04.406Z,6.67
2023-03-06T06:17:11.368Z,7.00
2023-03-06T06:22:15.030Z,6.70
2023-03-06T06:27:18.567Z,6.90
2023-03-06T06:32:28.864Z,7.20
2023-03-06T06:37:32.277Z,7.83
2023-03-06T06:42:39.964Z,7.73
2023-03-06T06:47:46.252Z,6.77
2023-03-06T06:52:49.589Z,7.70
2023-03-06T06:57:52.841Z,7.70
2023-03-06T07:02:59.717Z,6.77
2023-03-06T07:08:03.145Z,7.87
2023-03-06T07:13:06.428Z,7.47
2023-03-06T07:18:11.184Z,7.87
2023-03-06T07:23:14.565Z,7.73
2023-03-06T07:28:19.374Z,8.30
2023-03-06T07:33:24.263Z,7.90
2023-03-06T07:38:27.568Z,7.40
2023-03-06T07:43:30.826Z,8.07
2023-03-06T07:48:35.844Z,8.63
2023-03-06T07:53:39.179Z,9.23
2023-03-06T07:58:44.783Z,9.90
2023-03-06T08:03:50.263Z,9.50
2023-03-06T08:08:55.392Z,9.70
2023-03-06T08:13:59.587Z,9.83
2023-03-06T08:19:04.158Z,10.73
2023-03-06T08:24:08.535Z,9.90
2023-03-06T08:29:12.921Z,9.67
2023-03-06T08:34:19.259Z,9.00
2023-03-06T08:39:23.721Z,9.80
2023-03-06T08:44:26.931Z,9.73
2023-03-06T08:49:31.770Z,8.53
2023-03-06T08:54:36.161Z,9.17
2023-03-06T08:59:39.635Z,9.10
2023-03-06T09:04:44.373Z,9.23
2023-03-06T09:09:47.909Z,9.40
2023-03-06T09:14:51.488Z,9.77
2023-03-06T09:19:56.152Z,9.77
2023-03-06T09:25:02.960Z,10.20
2023-03-06T09:30:09.286Z,10.03
2023-03-06T09:35:15.882Z,10.13
2023-03-06T09:40:26.413Z,9.97
2023-03-06T09:45:38.309Z,10.00
2023-03-06T09:50:47.699Z,9.13
2023-03-06T09:55:58.301Z,8.90
2023-03-06T10:01:05.784Z,10.67
2023-03-06T10:06:17.257Z,10.67
2023-03-06T10:11:26.271Z,11.00
2023-03-06T10:16:31.863Z,11.27
2023-03-06T10:21:44.816Z,12.63
2023-03-06T10:26:53.896Z,14.03
2023-03-06T10:32:05.592Z,14.33
2023-03-06T10:37:20.357Z,14.10
2023-03-06T10:42:24.586Z,14.87
2023-03-06T10:47:35.340Z,15.30
2023-03-06T10:52:41.283Z,13.93
2023-03-06T10:57:44.379Z,15.90
2023-03-06T11:02:47.561Z,13.47
2023-03-06T11:07:57.529Z,13.80
2023-03-06T11:13:02.890Z,13.83
2023-03-06T11:18:28.924Z,13.20
2023-03-06T11:23:40.062Z,13.23
2023-03-06T11:28:47.444Z,14.67
2023-03-06T11:33:56.009Z,14.10
2023-03-06T11:39:01.672Z,13.10
2023-03-06T11:44:15.636Z,13.30
2023-03-06T11:49:24.042Z,13.50
2023-03-06T11:54:28.674Z,13.37
2023-03-06T11:59:52.617Z,12.60
2023-03-06T12:05:10.996Z,13.07
2023-03-06T12:10:20.602Z,13.27
2023-03-06T12:15:41.279Z,10.47
2023-03-06T12:20:56.957Z,10.73
2023-03-06T12:26:10.821Z,9.57
2023-03-06T12:31:46.392Z,11.03
2023-03-06T12:37:02.438Z,10.13
2023-03-06T12:42:32.766Z,8.47
2023-03-06T12:47:43.170Z,7.70
2023-03-06T12:52:49.309Z,6.73
2023-03-06T12:57:54.632Z,5.63
2023-03-06T13:03:13.014Z,5.47
2023-03-06T13:08:32.980Z,5.60
2023-03-06T13:13:45.335Z,5.20
2023-03-06T13:18:52.820Z,6.13
2023-03-06T13:24:06.319Z,6.87
2023-03-06T13:29:42.639Z,7.00
2023-03-06T13:34:48.870Z,8.00
2023-03-06T13:40:16.640Z,8.20
2023-03-06T13:45:26.088Z,9.33
2023-03-06T13:50:38.107Z,9.23
2023-03-06T13:55:51.998Z,10.63
2023-03-06T14:01:35.163Z,9.40
2023-03-06T14:07:06.521Z,9.20
2023-03-06T14:12:20.368Z,9.60
2023-03-06T14:17:29.411Z,8.73
2023-03-06T14:22:33.929Z,9.93
2023-03-06T14:27:45.764Z,8.90
2023-03-06T14:32:51.499Z,9.30
2023-03-06T14:37:59.799Z,8.90
2023-03-06T14:43:21.670Z,8.70
2023-03-06T14:48:27.065Z,8.73
2023-03-06T14:53:33.980Z,8.90
2023-03-06T14:58:45.536Z,10.00
2023-03-06T15:03:54.430Z,10.10
2023-03-06T15:09:04.753Z,10.17
2023-03-06T15:14:20.048Z,9.70
2023-03-06T15:19:24.192Z,10.43
2023-03-06T15:24:35.318Z,9.93
2023-03-06T15:29:40.213Z,10.10
2023-03-06T15:34:43.523Z,10.50
2023-03-06T15:40:08.209Z,10.60
2023-03-06T15:45:17.157Z,10.40
2023-03-06T15:50:21.992Z,9.47
2023-03-06T15:55:27.650Z,8.03
2023-03-06T16:00:34.243Z,7.27
2023-03-06T16:05:37.518Z,7.63
2023-03-06T16:10:43.806Z,7.37
2023-03-06T16:15:49.372Z,7.80
2023-03-06T16:20:52.645Z,8.90
2023-03-06T16:25:57.509Z,6.83
2023-03-06T16:31:01.086Z,6.90
2023-03-06T16:36:13.483Z,6.40
2023-03-06T16:41:19.169Z,6.93
2023-03-06T16:46:25.221Z,6.43
2023-03-06T16:51:28.458Z,7.00
2023-03-06T16:56:33.038Z,6.90
2023-03-06T17:01:36.348Z,7.00
2023-03-06T17:06:41.870Z,7.30
2023-03-06T17:11:46.985Z,7.70
2023-03-06T17:16:50.543Z,14.47
2023-03-06T17:21:53.942Z,9.53
2023-03-06T17:26:58.689Z,9.13
2023-03-06T17:32:02.157Z,8.90
2023-03-06T17:37:05.566Z,8.83
2023-03-06T17:42:10.349Z,7.07
2023-03-06T17:47:13.860Z,7.47
2023-03-06T17:52:17.046Z,8.40
2023-03-06T17:57:22.189Z,9.07
2023-03-06T18:02:25.806Z,8.57
2023-03-06T18:07:29.136Z,7.37
2023-03-06T18:12:33.946Z,7.07
2023-03-06T18:17:37.321Z,7.73
2023-03-06T18:22:40.631Z,7.60
2023-03-06T18:27:45.555Z,8.47
2023-03-06T18:32:48.763Z,7.20
2023-03-06T18:37:55.780Z,10.77
2023-03-06T18:43:00.814Z,8.17
2023-03-06T18:48:05.013Z,7.97
2023-03-06T18:53:08.611Z,8.20
2023-03-06T18:58:14.249Z,7.23
2023-03-06T19:03:21.070Z,8.17
2023-03-06T19:08:25.002Z,8.20
2023-03-06T19:13:29.913Z,8.57
2023-03-06T19:18:33.263Z,8.00
2023-03-06T19:23:36.484Z,8.20
2023-03-06T19:28:43.381Z,8.17
2023-03-06T19:33:48.605Z,8.37
2023-03-06T19:38:55.189Z,9.30
2023-03-06T19:44:02.498Z,8.23
2023-03-06T19:49:12.017Z,7.53
2023-03-06T19:54:16.951Z,9.07
2023-03-06T19:59:21.563Z,8.17
2023-03-06T20:04:26.340Z,7.90
2023-03-06T20:09:32.374Z,7.77
2023-03-06T20:14:37.685Z,8.30
2023-03-06T20:19:40.925Z,7.93
2023-03-06T20:24:44.419Z,8.80
2023-03-06T20:29:49.684Z,9.13
2023-03-06T20:34:52.765Z,9.30
2023-03-06T20:39:56.256Z,8.90
2023-03-06T20:45:00.738Z,10.13
2023-03-06T20:50:04.202Z,10.90
2023-03-06T20:55:08.341Z,12.20
2023-03-06T21:00:14.185Z,12.63
2023-03-06T21:05:17.882Z,12.07
2023-03-06T21:10:21.496Z,12.33
2023-03-06T21:15:30.109Z,12.20
2023-03-06T21:20:34.559Z,11.50
2023-03-06T21:25:38.159Z,11.00
2023-03-06T21:30:43.582Z,11.93
2023-03-06T21:35:47.077Z,11.37
2023-03-06T21:40:50.340Z,11.80
2023-03-06T21:45:58.399Z,11.60
2023-03-06T21:51:09.987Z,11.23
2023-03-06T21:56:14.903Z,11.63
2023-03-06T22:01:21.939Z,11.83
2023-03-06T22:06:27.438Z,12.57
2023-03-06T22:11:31.481Z,11.20
2023-03-06T22:16:36.675Z,11.93
2023-03-06T22:21:40.053Z,11.93
2023-03-06T22:26:43.270Z,12.30
2023-03-06T22:31:47.920Z,11.83
2023-03-06T22:36:51.182Z,13.07
2023-03-06T22:41:56.321Z,12.53
2023-03-06T22:47:01.004Z,12.00
2023-03-06T22:52:04.302Z,11.17
2023-03-06T22:57:07.531Z,12.90
2023-03-06T23:02:12.190Z,12.97
2023-03-06T23:07:15.489Z,13.53
2023-03-06T23:12:18.693Z,13.10
2023-03-06T23:17:23.412Z,12.37
2023-03-06T23:22:27.900Z,12.40
2023-03-06T23:27:31.034Z,13.33
2023-03-06T23:32:36.077Z,11.60
2023-03-06T23:37:39.270Z,13.23
2023-03-06T23:42:42.583Z,12.97
2023-03-06T23:48:07.096Z,13.17
2023-03-06T23:53:28.577Z,11.17
2023-03-06T23:58:50.541Z,12.00
